createdAt,value
2023-04-13T00:00:32.018Z,995.72
2023-04-13T00:01:31.999Z,995.70
2023-04-13T00:02:32.082Z,995.66
2023-04-13T00:03:32.153Z,995.62
2023-04-13T00:04:31.985Z,995.61
2023-04-13T00:05:31.970Z,995.69
2023-04-13T00:06:31.947Z,995.72
2023-04-13T00:07:31.930Z,995.78
2023-04-13T00:08:31.923Z,995.84
2023-04-13T00:09:31.936Z,995.74
2023-04-13T00:10:31.902Z,995.83
2023-04-13T00:11:31.900Z,995.81
2023-04-13T00:12:31.872Z,995.75
2023-04-13T00:13:31.887Z,995.78
2023-04-13T00:14:31.854Z,995.76
2023-04-13T00:15:31.877Z,995.71
2023-04-13T00:16:31.951Z,995.73
2023-04-13T00:17:31.832Z,995.68
2023-04-13T00:18:31.825Z,995.63
2023-04-13T00:19:31.804Z,995.63
2023-04-13T00:20:31.785Z,995.58
2023-04-13T00:21:31.792Z,995.68
2023-04-13T00:22:31.764Z,995.74
2023-04-13T00:23:31.784Z,995.75
2023-04-13T00:24:31.747Z,995.74
2023-04-13T00:25:31.740Z,995.67
2023-04-13T00:26:31.747Z,995.72
2023-04-13T00:27:31.711Z,995.72
2023-04-13T00:28:31.699Z,995.61
2023-04-13T00:29:31.714Z,995.60
2023-04-13T00:30:31.718Z,995.56
2023-04-13T00:31:31.758Z,995.57
2023-04-13T00:32:31.657Z,995.65
2023-04-13T00:33:31.651Z,995.66
2023-04-13T00:34:31.662Z,995.68
2023-04-13T00:35:31.628Z,995.65
2023-04-13T00:36:31.614Z,995.65
2023-04-13T00:37:31.609Z,995.63
2023-04-13T00:38:31.596Z,995.69
2023-04-13T00:39:31.612Z,995.68
2023-04-13T00:40:31.599Z,995.73
2023-04-13T00:41:31.586Z,995.80
2023-04-13T00:42:31.551Z,995.87
2023-04-13T00:43:31.544Z,995.94
2023-04-13T00:44:31.537Z,995.91
2023-04-13T00:45:31.545Z,995.90
2023-04-13T00:46:31.569Z,995.93
2023-04-13T00:47:31.530Z,995.93
2023-04-13T00:48:31.482Z,995.97
2023-04-13T00:49:31.486Z,995.97
2023-04-13T00:50:31.481Z,996.01
2023-04-13T00:51:31.452Z,996.01
2023-04-13T00:52:31.439Z,996.05
2023-04-13T00:53:31.430Z,996.11
2023-04-13T00:54:31.445Z,996.16
2023-04-13T00:55:31.410Z,996.15
2023-04-13T00:56:31.407Z,996.21
2023-04-13T00:57:31.391Z,996.23
2023-04-13T00:58:31.376Z,996.21
2023-04-13T00:59:31.380Z,996.22
2023-04-13T01:00:31.357Z,996.30
2023-04-13T01:01:31.364Z,996.27
2023-04-13T01:02:31.472Z,996.29
2023-04-13T01:03:31.426Z,996.25
2023-04-13T01:04:31.353Z,996.31
2023-04-13T01:05:31.324Z,996.31
2023-04-13T01:06:31.285Z,996.34
2023-04-13T01:07:31.274Z,996.38
2023-04-13T01:08:31.266Z,996.38
2023-04-13T01:09:31.277Z,996.38
2023-04-13T01:10:31.265Z,996.52
2023-04-13T01:11:31.239Z,996.52
2023-04-13T01:12:31.218Z,996.57
2023-04-13T01:13:31.227Z,996.60
2023-04-13T01:14:31.228Z,996.69
2023-04-13T01:15:31.194Z,996.75
2023-04-13T01:16:31.254Z,996.77
2023-04-13T01:17:31.190Z,996.81
2023-04-13T01:18:31.152Z,996.78
2023-04-13T01:19:31.167Z,996.72
2023-04-13T01:20:31.151Z,996.70
2023-04-13T01:21:31.128Z,996.62
2023-04-13T01:22:31.125Z,996.59
2023-04-13T01:23:31.143Z,996.58
2023-04-13T01:24:31.096Z,996.49
2023-04-13T01:25:31.103Z,996.42
2023-04-13T01:26:31.064Z,996.38
2023-04-13T01:27:31.057Z,996.45
2023-04-13T01:28:31.047Z,996.49
2023-04-13T01:29:31.035Z,996.60
2023-04-13T01:30:31.040Z,996.72
2023-04-13T01:31:31.029Z,996.76
2023-04-13T01:32:31.045Z,996.87
2023-04-13T01:33:31.044Z,996.80
2023-04-13T01:34:30.975Z,996.85
2023-04-13T01:35:31.060Z,996.93
2023-04-13T01:36:30.956Z,996.85
2023-04-13T01:37:30.943Z,996.94
2023-04-13T01:38:30.935Z,997.02
2023-04-13T01:39:30.922Z,997.05
2023-04-13T01:40:30.952Z,997.15
2023-04-13T01:41:30.904Z,997.20
2023-04-13T01:42:30.895Z,997.18
2023-04-13T01:43:30.977Z,997.12
2023-04-13T01:44:30.904Z,997.09
2023-04-13T01:45:30.888Z,997.05
2023-04-13T01:46:30.960Z,997.09
2023-04-13T01:47:30.992Z,997.11
2023-04-13T01:48:30.895Z,997.08
2023-04-13T01:49:30.850Z,997.09
2023-04-13T01:50:30.908Z,997.13
2023-04-13T01:51:30.896Z,997.16
2023-04-13T01:52:30.796Z,997.24
2023-04-13T01:53:30.775Z,997.19
2023-04-13T01:54:30.757Z,997.23
2023-04-13T01:55:30.771Z,997.27
2023-04-13T01:56:30.738Z,997.34
2023-04-13T01:57:30.762Z,997.32
2023-04-13T01:58:30.710Z,997.31
2023-04-13T01:59:30.710Z,997.37
2023-04-13T02:00:30.693Z,997.38
2023-04-13T02:01:30.708Z,997.36
2023-04-13T02:02:30.838Z,997.30
2023-04-13T02:03:30.754Z,997.38
2023-04-13T02:04:30.642Z,997.36
2023-04-13T02:05:30.642Z,997.34
2023-04-13T02:06:30.643Z,997.37
2023-04-13T02:07:30.632Z,997.43
2023-04-13T02:08:31.617Z,997.41
2023-04-13T02:09:30.594Z,997.48
2023-04-13T02:10:30.577Z,997.44
2023-04-13T02:11:30.589Z,997.48
2023-04-13T02:12:30.552Z,997.48
2023-04-13T02:13:30.567Z,997.48
2023-04-13T02:14:30.535Z,997.48
2023-04-13T02:15:30.529Z,997.56
2023-04-13T02:16:30.535Z,997.54
2023-04-13T02:17:30.522Z,997.50
2023-04-13T02:18:30.530Z,997.63
2023-04-13T02:19:30.482Z,997.60
2023-04-13T02:20:30.466Z,997.55
2023-04-13T02:21:30.466Z,997.62
2023-04-13T02:22:30.450Z,997.62
2023-04-13T02:23:30.497Z,997.60
2023-04-13T02:24:30.466Z,997.55
2023-04-13T02:25:30.418Z,997.56
2023-04-13T02:26:30.404Z,997.64
2023-04-13T02:27:30.391Z,997.68
2023-04-13T02:28:30.408Z,997.70
2023-04-13T02:29:30.370Z,997.71
2023-04-13T02:30:30.363Z,997.64
2023-04-13T02:31:30.356Z,997.62
2023-04-13T02:32:30.333Z,997.62
2023-04-13T02:33:30.321Z,997.63
2023-04-13T02:34:30.340Z,997.59
2023-04-13T02:35:30.334Z,997.59
2023-04-13T02:36:30.300Z,997.56
2023-04-13T02:37:30.289Z,997.58
2023-04-13T02:38:30.279Z,997.51
2023-04-13T02:39:30.296Z,997.48
2023-04-13T02:40:30.253Z,997.56
2023-04-13T02:41:30.236Z,997.64
2023-04-13T02:42:30.227Z,997.62
2023-04-13T02:43:30.237Z,997.69
2023-04-13T02:44:30.222Z,997.71
2023-04-13T02:45:30.228Z,997.77
2023-04-13T02:46:32.637Z,997.76
2023-04-13T02:47:30.212Z,997.78
2023-04-13T02:48:30.181Z,997.75
2023-04-13T02:49:30.146Z,997.71
2023-04-13T02:50:30.147Z,997.70
2023-04-13T02:51:30.124Z,997.68
2023-04-13T02:52:30.121Z,997.72
2023-04-13T02:53:30.117Z,997.69
2023-04-13T02:54:30.095Z,997.68
2023-04-13T02:55:30.120Z,997.68
2023-04-13T02:56:30.078Z,997.67
2023-04-13T02:57:30.054Z,997.59
2023-04-13T02:58:30.072Z,997.58
2023-04-13T02:59:30.033Z,997.65
2023-04-13T03:00:30.028Z,997.64
2023-04-13T03:01:30.027Z,997.66
2023-04-13T03:02:30.165Z,997.70
2023-04-13T03:03:30.127Z,997.75
2023-04-13T03:04:30.044Z,997.75
2023-04-13T03:05:29.970Z,997.83
2023-04-13T03:06:29.960Z,997.82
2023-04-13T03:07:29.975Z,997.79
2023-04-13T03:08:29.940Z,997.75
2023-04-13T03:09:29.925Z,997.75
2023-04-13T03:10:29.912Z,997.76
2023-04-13T03:11:29.927Z,997.79
2023-04-13T03:12:29.922Z,997.79
2023-04-13T03:13:29.885Z,997.79
2023-04-13T03:14:29.963Z,997.76
2023-04-13T03:15:29.868Z,997.76
2023-04-13T03:16:29.909Z,997.72
2023-04-13T03:17:29.870Z,997.72
2023-04-13T03:18:29.826Z,997.77
2023-04-13T03:19:29.840Z,997.78
2023-04-13T03:20:29.808Z,997.83
2023-04-13T03:21:29.797Z,997.85
2023-04-13T03:22:29.789Z,997.85
2023-04-13T03:23:29.776Z,997.85
2023-04-13T03:24:29.788Z,997.93
2023-04-13T03:25:31.311Z,997.93
2023-04-13T03:26:29.745Z,997.91
2023-04-13T03:27:29.758Z,997.98
2023-04-13T03:28:29.725Z,997.98
2023-04-13T03:29:29.737Z,998.08
2023-04-13T03:30:29.700Z,998.06
2023-04-13T03:31:29.736Z,998.04
2023-04-13T03:32:29.717Z,998.07
2023-04-13T03:33:29.670Z,998.03
2023-04-13T03:34:29.687Z,998.05
2023-04-13T03:35:29.645Z,998.09
2023-04-13T03:36:29.658Z,998.03
2023-04-13T03:37:29.620Z,998.03
2023-04-13T03:38:29.618Z,998.03
2023-04-13T03:39:29.631Z,998.00
2023-04-13T03:40:29.609Z,998.06
2023-04-13T03:41:29.578Z,997.99
2023-04-13T03:42:29.571Z,997.98
2023-04-13T03:43:29.577Z,997.99
2023-04-13T03:44:29.553Z,998.02
2023-04-13T03:45:29.558Z,997.97
2023-04-13T03:46:29.608Z,997.99
2023-04-13T03:47:29.524Z,997.97
2023-04-13T03:48:29.516Z,997.98
2023-04-13T03:49:29.520Z,998.03
2023-04-13T03:50:29.483Z,998.01
2023-04-13T03:51:29.474Z,997.99
2023-04-13T03:52:29.463Z,998.03
2023-04-13T03:53:29.449Z,998.06
2023-04-13T03:54:29.468Z,998.07
2023-04-13T03:55:29.433Z,998.10
2023-04-13T03:56:29.423Z,998.08
2023-04-13T03:57:29.412Z,998.09
2023-04-13T03:58:29.402Z,998.09
2023-04-13T03:59:29.396Z,998.14
2023-04-13T04:00:29.394Z,998.11
2023-04-13T04:01:29.378Z,998.11
2023-04-13T04:02:29.624Z,998.09
2023-04-13T04:03:29.412Z,998.17
2023-04-13T04:04:29.367Z,998.18
2023-04-13T04:05:29.315Z,998.18
2023-04-13T04:06:29.338Z,998.21
2023-04-13T04:07:29.304Z,998.23
2023-04-13T04:08:29.295Z,998.25
2023-04-13T04:09:29.273Z,998.25
2023-04-13T04:10:29.269Z,998.29
2023-04-13T04:11:29.288Z,998.24
2023-04-13T04:12:29.252Z,998.26
2023-04-13T04:13:29.240Z,998.21
2023-04-13T04:14:29.233Z,998.22
2023-04-13T04:15:29.244Z,998.22
2023-04-13T04:16:29.302Z,998.21
2023-04-13T04:17:29.193Z,998.19
2023-04-13T04:18:29.178Z,998.19
2023-04-13T04:19:29.159Z,998.24
2023-04-13T04:20:29.153Z,998.29
2023-04-13T04:21:29.181Z,998.29
2023-04-13T04:22:29.135Z,998.37
2023-04-13T04:23:29.127Z,998.29
2023-04-13T04:24:29.108Z,998.32
2023-04-13T04:25:29.100Z,998.36
2023-04-13T04:26:29.116Z,998.34
2023-04-13T04:27:29.075Z,998.36
2023-04-13T04:28:29.070Z,998.32
2023-04-13T04:29:29.060Z,998.32
2023-04-13T04:30:29.048Z,998.42
2023-04-13T04:31:29.123Z,998.42
2023-04-13T04:32:29.089Z,998.43
2023-04-13T04:33:29.027Z,998.44
2023-04-13T04:34:29.012Z,998.42
2023-04-13T04:35:29.018Z,998.35
2023-04-13T04:36:28.975Z,998.42
2023-04-13T04:37:28.975Z,998.46
2023-04-13T04:38:28.965Z,998.39
2023-04-13T04:39:28.947Z,998.52
2023-04-13T04:40:28.960Z,998.47
2023-04-13T04:41:28.930Z,998.52
2023-04-13T04:42:28.931Z,998.51
2023-04-13T04:43:28.900Z,998.50
2023-04-13T04:44:28.902Z,998.62
2023-04-13T04:45:28.927Z,998.58
2023-04-13T04:46:28.888Z,998.60
2023-04-13T04:47:28.908Z,998.59
2023-04-13T04:48:28.848Z,998.56
2023-04-13T04:49:28.845Z,998.58
2023-04-13T04:50:28.857Z,998.57
2023-04-13T04:51:28.841Z,998.56
2023-04-13T04:52:28.808Z,998.55
2023-04-13T04:53:28.794Z,998.47
2023-04-13T04:54:28.785Z,998.52
2023-04-13T04:55:28.795Z,998.45
2023-04-13T04:56:28.762Z,998.49
2023-04-13T04:57:29.756Z,998.50
2023-04-13T04:58:28.772Z,998.48
2023-04-13T04:59:28.726Z,998.43
2023-04-13T05:00:28.730Z,998.38
2023-04-13T05:01:28.735Z,998.45
2023-04-13T05:02:28.778Z,998.45
2023-04-13T05:03:28.759Z,998.40
2023-04-13T05:04:28.697Z,998.48
2023-04-13T05:05:28.681Z,998.46
2023-04-13T05:06:28.651Z,998.42
2023-04-13T05:07:28.641Z,998.49
2023-04-13T05:08:28.650Z,998.46
2023-04-13T05:09:28.646Z,998.56
2023-04-13T05:10:28.606Z,998.64
2023-04-13T05:11:28.590Z,998.59
2023-04-13T05:12:28.587Z,998.53
2023-04-13T05:13:28.569Z,998.57
2023-04-13T05:14:28.588Z,998.54
2023-04-13T05:15:28.546Z,998.48
2023-04-13T05:16:28.608Z,998.47
2023-04-13T05:17:28.554Z,998.50
2023-04-13T05:18:28.536Z,998.51
2023-04-13T05:19:28.552Z,998.58
2023-04-13T05:20:28.499Z,998.57
2023-04-13T05:21:28.509Z,998.67
2023-04-13T05:22:28.478Z,998.67
2023-04-13T05:23:28.463Z,998.71
2023-04-13T05:24:28.486Z,998.66
2023-04-13T05:25:28.438Z,998.62
2023-04-13T05:26:28.429Z,998.67
2023-04-13T05:27:28.424Z,998.71
2023-04-13T05:28:28.411Z,998.72
2023-04-13T05:29:28.422Z,998.69
2023-04-13T05:30:28.405Z,998.76
2023-04-13T05:31:28.436Z,998.80
2023-04-13T05:32:28.407Z,998.80
2023-04-13T05:33:28.357Z,998.73
2023-04-13T05:34:28.364Z,998.79
2023-04-13T05:35:28.414Z,998.82
2023-04-13T05:36:28.329Z,998.84
2023-04-13T05:37:28.331Z,998.76
2023-04-13T05:38:28.303Z,998.86
2023-04-13T05:39:28.294Z,998.82
2023-04-13T05:40:28.310Z,998.81
2023-04-13T05:41:28.277Z,998.79
2023-04-13T05:42:28.263Z,998.84
2023-04-13T05:43:28.266Z,998.85
2023-04-13T05:44:28.246Z,998.80
2023-04-13T05:45:28.296Z,998.85
2023-04-13T05:46:28.209Z,998.82
2023-04-13T05:47:28.239Z,998.86
2023-04-13T05:48:28.195Z,998.96
2023-04-13T05:49:28.177Z,998.96
2023-04-13T05:50:28.196Z,999.01
2023-04-13T05:51:28.188Z,999.02
2023-04-13T05:52:28.153Z,999.06
2023-04-13T05:53:28.136Z,999.06
2023-04-13T05:54:28.123Z,999.03
2023-04-13T05:55:28.139Z,999.12
2023-04-13T05:56:28.109Z,999.10
2023-04-13T05:57:28.095Z,999.10
2023-04-13T05:58:28.076Z,999.11
2023-04-13T05:59:28.064Z,999.13
2023-04-13T06:00:28.095Z,999.12
2023-04-13T06:01:28.049Z,999.14
2023-04-13T06:02:28.192Z,999.15
2023-04-13T06:03:28.262Z,999.17
2023-04-13T06:04:28.242Z,999.12
2023-04-13T06:05:28.042Z,999.14
2023-04-13T06:06:27.991Z,999.17
2023-04-13T06:07:28.021Z,999.19
2023-04-13T06:08:29.324Z,999.26
2023-04-13T06:09:27.974Z,999.23
2023-04-13T06:10:27.964Z,999.25
2023-04-13T06:11:27.929Z,999.25
2023-04-13T06:12:27.926Z,999.31
2023-04-13T06:13:27.910Z,999.27
2023-04-13T06:14:27.953Z,999.32
2023-04-13T06:15:27.928Z,999.36
2023-04-13T06:16:27.912Z,999.34
2023-04-13T06:17:27.893Z,999.42
2023-04-13T06:18:27.860Z,999.42
2023-04-13T06:19:28.995Z,999.49
2023-04-13T06:20:27.859Z,999.47
2023-04-13T06:21:27.824Z,999.47
2023-04-13T06:22:27.817Z,999.45
2023-04-13T06:23:27.834Z,999.40
2023-04-13T06:24:27.793Z,999.44
2023-04-13T06:25:27.807Z,999.42
2023-04-13T06:26:27.770Z,999.53
2023-04-13T06:27:27.756Z,999.50
2023-04-13T06:28:27.757Z,999.48
2023-04-13T06:29:27.732Z,999.50
2023-04-13T06:30:27.752Z,999.47
2023-04-13T06:31:28.042Z,999.52
2023-04-13T06:32:27.751Z,999.53
2023-04-13T06:33:27.702Z,999.50
2023-04-13T06:34:27.685Z,999.53
2023-04-13T06:35:27.690Z,999.55
2023-04-13T06:36:27.665Z,999.60
2023-04-13T06:37:27.653Z,999.60
2023-04-13T06:38:27.644Z,999.66
2023-04-13T06:39:28.748Z,999.64
2023-04-13T06:40:27.655Z,999.65
2023-04-13T06:41:27.607Z,999.59
2023-04-13T06:42:27.590Z,999.68
2023-04-13T06:43:29.842Z,999.73
2023-04-13T06:44:27.588Z,999.75
2023-04-13T06:45:27.587Z,999.79
2023-04-13T06:46:27.604Z,999.79
2023-04-13T06:47:27.577Z,999.85
2023-04-13T06:48:27.528Z,999.86
2023-04-13T06:49:27.514Z,999.85
2023-04-13T06:50:27.559Z,999.80
2023-04-13T06:51:27.490Z,999.89
2023-04-13T06:52:27.487Z,999.90
2023-04-13T06:53:27.474Z,999.96
2023-04-13T06:54:27.487Z,1000.04
2023-04-13T06:55:27.495Z,999.97
2023-04-13T06:56:27.436Z,999.95
2023-04-13T06:57:27.436Z,999.96
2023-04-13T06:58:27.453Z,1000.00
2023-04-13T06:59:27.404Z,1000.09
2023-04-13T07:00:30.036Z,1000.12
2023-04-13T07:01:27.459Z,1000.10
2023-04-13T07:02:27.507Z,1000.10
2023-04-13T07:03:27.493Z,1000.12
2023-04-13T07:04:29.690Z,1000.07
2023-04-13T07:05:27.344Z,1000.11
2023-04-13T07:06:27.331Z,1000.12
2023-04-13T07:07:27.345Z,1000.06
2023-04-13T07:08:27.313Z,1000.18
2023-04-13T07:09:27.312Z,1000.13
2023-04-13T07:10:27.372Z,1000.08
2023-04-13T07:11:27.307Z,1000.07
2023-04-13T07:12:27.283Z,1000.16
2023-04-13T07:13:27.252Z,1000.15
2023-04-13T07:14:27.253Z,1000.09
2023-04-13T07:15:27.266Z,1000.17
2023-04-13T07:16:27.353Z,1000.15
2023-04-13T07:17:27.225Z,1000.11
2023-04-13T07:18:27.198Z,1000.09
2023-04-13T07:19:27.194Z,1000.10
2023-04-13T07:20:27.202Z,1000.08
2023-04-13T07:21:27.169Z,1000.14
2023-04-13T07:22:27.169Z,1000.09
2023-04-13T07:23:27.149Z,1000.11
2023-04-13T07:24:28.702Z,1000.14
2023-04-13T07:25:27.164Z,1000.21
2023-04-13T07:26:27.117Z,1000.18
2023-04-13T07:27:27.122Z,1000.17
2023-04-13T07:28:27.086Z,1000.17
2023-04-13T07:29:27.098Z,1000.13
2023-04-13T07:30:27.082Z,1000.14
2023-04-13T07:31:27.126Z,1000.14
2023-04-13T07:32:30.926Z,1000.05
2023-04-13T07:33:27.060Z,1000.10
2023-04-13T07:34:27.032Z,1000.16
2023-04-13T07:35:27.025Z,1000.18
2023-04-13T07:36:27.003Z,1000.19
2023-04-13T07:37:27.027Z,1000.10
2023-04-13T07:38:26.978Z,1000.13
2023-04-13T07:39:26.977Z,1000.07
2023-04-13T07:40:26.954Z,1000.07
2023-04-13T07:41:26.941Z,1000.16
2023-04-13T07:42:26.965Z,1000.09
2023-04-13T07:43:27.026Z,1000.13
2023-04-13T07:44:27.022Z,1000.14
2023-04-13T07:45:26.902Z,1000.12
2023-04-13T07:46:26.981Z,1000.20
2023-04-13T07:47:26.970Z,1000.22
2023-04-13T07:48:26.893Z,1000.28
2023-04-13T07:49:26.862Z,1000.32
2023-04-13T07:50:26.845Z,1000.38
2023-04-13T07:51:26.873Z,1000.33
2023-04-13T07:52:26.854Z,1000.41
2023-04-13T07:53:26.821Z,1000.40
2023-04-13T07:54:26.801Z,1000.25
2023-04-13T07:55:26.797Z,1000.29
2023-04-13T07:56:26.776Z,1000.33
2023-04-13T07:57:26.867Z,1000.33
2023-04-13T07:58:26.772Z,1000.32
2023-04-13T07:59:26.787Z,1000.31
2023-04-13T08:00:26.732Z,1000.39
2023-04-13T08:01:26.726Z,1000.38
2023-04-13T08:02:26.778Z,1000.30
2023-04-13T08:03:26.884Z,1000.38
2023-04-13T08:04:26.867Z,1000.33
2023-04-13T08:05:26.828Z,1000.39
2023-04-13T08:06:26.665Z,1000.30
2023-04-13T08:07:26.753Z,1000.30
2023-04-13T08:08:26.668Z,1000.32
2023-04-13T08:09:26.644Z,1000.31
2023-04-13T08:10:26.636Z,1000.28
2023-04-13T08:11:26.622Z,1000.28
2023-04-13T08:12:26.608Z,1000.35
2023-04-13T08:13:26.620Z,1000.39
2023-04-13T08:14:26.584Z,1000.40
2023-04-13T08:15:26.602Z,1000.42
2023-04-13T08:16:26.590Z,1000.42
2023-04-13T08:17:26.659Z,1000.48
2023-04-13T08:18:26.550Z,1000.46
2023-04-13T08:19:26.532Z,1000.40
2023-04-13T08:20:26.519Z,1000.41
2023-04-13T08:21:26.511Z,1000.47
2023-04-13T08:22:26.532Z,1000.39
2023-04-13T08:23:26.485Z,1000.49
2023-04-13T08:24:26.496Z,1000.49
2023-04-13T08:25:26.468Z,1000.49
2023-04-13T08:26:26.462Z,1000.55
2023-04-13T08:27:26.458Z,1000.56
2023-04-13T08:28:26.432Z,1000.61
2023-04-13T08:29:26.463Z,1000.57
2023-04-13T08:30:26.428Z,1000.64
2023-04-13T08:31:26.477Z,1000.65
2023-04-13T08:32:26.422Z,1000.60
2023-04-13T08:33:26.406Z,1000.59
2023-04-13T08:34:26.397Z,1000.70
2023-04-13T08:35:26.357Z,1000.66
2023-04-13T08:36:26.352Z,1000.73
2023-04-13T08:37:26.347Z,1000.70
2023-04-13T08:38:26.360Z,1000.74
2023-04-13T08:39:26.317Z,1000.72
2023-04-13T08:40:26.307Z,1000.74
2023-04-13T08:41:26.294Z,1000.81
2023-04-13T08:42:27.085Z,1000.74
2023-04-13T08:43:26.277Z,1000.70
2023-04-13T08:44:26.275Z,1000.77
2023-04-13T08:45:26.268Z,1000.76
2023-04-13T08:46:26.313Z,1000.74
2023-04-13T08:47:26.258Z,1000.77
2023-04-13T08:48:26.226Z,1000.80
2023-04-13T08:49:26.232Z,1000.74
2023-04-13T08:50:26.193Z,1000.71
2023-04-13T08:51:26.181Z,1000.78
2023-04-13T08:52:26.168Z,1000.83
2023-04-13T08:53:26.164Z,1000.81
2023-04-13T08:54:26.165Z,1000.72
2023-04-13T08:55:26.138Z,1000.73
2023-04-13T08:56:37.752Z,1000.76
2023-04-13T08:57:27.134Z,1000.82
2023-04-13T08:58:26.105Z,1000.76
2023-04-13T08:59:26.116Z,1000.80
2023-04-13T09:00:26.076Z,1000.76
2023-04-13T09:01:26.114Z,1000.88
2023-04-13T09:02:26.228Z,1000.82
2023-04-13T09:03:26.308Z,1000.78
2023-04-13T09:04:26.239Z,1000.80
2023-04-13T09:05:26.056Z,1000.82
2023-04-13T09:06:26.004Z,1000.76
2023-04-13T09:07:26.046Z,1000.78
2023-04-13T09:08:26.844Z,1000.75
2023-04-13T09:09:25.982Z,1000.87
2023-04-13T09:10:25.994Z,1000.78
2023-04-13T09:11:25.956Z,1000.83
2023-04-13T09:12:25.972Z,1000.85
2023-04-13T09:13:25.946Z,1000.82
2023-04-13T09:14:25.925Z,1000.88
2023-04-13T09:15:25.936Z,1000.86
2023-04-13T09:16:25.919Z,1000.91
2023-04-13T09:17:26.115Z,1000.82
2023-04-13T09:18:25.904Z,1000.92
2023-04-13T09:19:25.923Z,1000.88
2023-04-13T09:20:25.872Z,1000.86
2023-04-13T09:21:25.845Z,1000.85
2023-04-13T09:22:25.846Z,1000.92
2023-04-13T09:23:25.828Z,1000.84
2023-04-13T09:24:25.824Z,1000.85
2023-04-13T09:25:25.834Z,1000.84
2023-04-13T09:26:25.854Z,1000.87
2023-04-13T09:27:25.784Z,1000.85
2023-04-13T09:28:25.769Z,1000.89
2023-04-13T09:29:25.763Z,1000.86
2023-04-13T09:30:25.766Z,1000.94
2023-04-13T09:31:25.782Z,1000.94
2023-04-13T09:32:25.855Z,1000.94
2023-04-13T09:33:25.749Z,1000.96
2023-04-13T09:34:25.709Z,1000.94
2023-04-13T09:35:25.724Z,1001.00
2023-04-13T09:36:25.684Z,1000.99
2023-04-13T09:37:25.677Z,1000.95
2023-04-13T09:38:25.686Z,1000.99
2023-04-13T09:39:25.656Z,1001.03
2023-04-13T09:40:25.642Z,1000.93
2023-04-13T09:41:25.632Z,1000.94
2023-04-13T09:42:25.620Z,1000.96
2023-04-13T09:43:25.632Z,1000.97
2023-04-13T09:44:25.602Z,1001.02
2023-04-13T09:45:25.591Z,1000.98
2023-04-13T09:46:25.586Z,1001.00
2023-04-13T09:47:25.593Z,1001.02
2023-04-13T09:48:25.571Z,1000.99
2023-04-13T09:49:25.580Z,1000.98
2023-04-13T09:50:25.559Z,1001.09
2023-04-13T09:51:25.549Z,1001.04
2023-04-13T09:52:25.515Z,1001.10
2023-04-13T09:53:25.502Z,1001.02
2023-04-13T09:54:25.524Z,1001.08
2023-04-13T09:55:25.479Z,1001.09
2023-04-13T09:56:25.470Z,1001.05
2023-04-13T09:57:25.456Z,1001.07
2023-04-13T09:58:25.570Z,1001.09
2023-04-13T09:59:25.457Z,1001.11
2023-04-13T10:00:25.418Z,1001.04
2023-04-13T10:01:25.609Z,1001.06
2023-04-13T10:02:25.566Z,1001.03
2023-04-13T10:03:25.523Z,1001.04
2023-04-13T10:04:25.409Z,1001.00
2023-04-13T10:05:27.571Z,1001.00
2023-04-13T10:06:25.356Z,1001.01
2023-04-13T10:07:25.368Z,1001.07
2023-04-13T10:08:36.709Z,1001.10
2023-04-13T10:09:26.346Z,1001.10
2023-04-13T10:10:25.315Z,1001.18
2023-04-13T10:11:25.304Z,1001.11
2023-04-13T10:12:25.320Z,1001.09
2023-04-13T10:13:25.654Z,1001.23
2023-04-13T10:14:25.266Z,1001.09
2023-04-13T10:15:25.256Z,1001.24
2023-04-13T10:16:25.338Z,1001.15
2023-04-13T10:17:25.473Z,1001.23
2023-04-13T10:18:25.359Z,1001.18
2023-04-13T10:19:25.224Z,1001.20
2023-04-13T10:20:27.199Z,1001.16
2023-04-13T10:21:25.192Z,1001.23
2023-04-13T10:22:25.199Z,1001.31
2023-04-13T10:23:25.196Z,1001.25
2023-04-13T10:24:25.172Z,1001.25
2023-04-13T10:25:33.240Z,1001.20
2023-04-13T10:26:25.160Z,1001.15
2023-04-13T10:27:25.130Z,1001.32
2023-04-13T10:28:26.269Z,1001.19
2023-04-13T10:29:25.107Z,1001.20
2023-04-13T10:30:25.116Z,1001.26
2023-04-13T10:31:25.096Z,1001.23
2023-04-13T10:32:25.114Z,1001.21
2023-04-13T10:33:25.057Z,1001.20
2023-04-13T10:34:25.045Z,1001.20
2023-04-13T10:35:25.060Z,1001.15
2023-04-13T10:36:25.015Z,1001.13
2023-04-13T10:37:25.015Z,1001.17
2023-04-13T10:38:25.005Z,1001.18
2023-04-13T10:39:25.014Z,1001.18
2023-04-13T10:40:25.021Z,1001.19
2023-04-13T10:41:24.999Z,1001.24
2023-04-13T10:42:24.961Z,1001.23
2023-04-13T10:43:24.943Z,1001.29
2023-04-13T10:44:24.936Z,1001.28
2023-04-13T10:45:24.917Z,1001.24
2023-04-13T10:46:24.963Z,1001.29
2023-04-13T10:47:27.816Z,1001.33
2023-04-13T10:48:24.888Z,1001.22
2023-04-13T10:49:24.876Z,1001.25
2023-04-13T10:50:24.925Z,1001.27
2023-04-13T10:51:24.879Z,1001.23
2023-04-13T10:52:24.839Z,1001.27
2023-04-13T10:53:26.745Z,1001.26
2023-04-13T10:54:24.817Z,1001.27
2023-04-13T10:55:24.869Z,1001.29
2023-04-13T10:56:24.798Z,1001.33
2023-04-13T10:57:24.799Z,1001.35
2023-04-13T10:58:24.775Z,1001.34
2023-04-13T10:59:24.768Z,1001.39
2023-04-13T11:00:34.727Z,1001.45
2023-04-13T11:01:25.771Z,1001.42
2023-04-13T11:02:24.842Z,1001.40
2023-04-13T11:03:24.826Z,1001.42
2023-04-13T11:04:24.854Z,1001.41
2023-04-13T11:05:24.697Z,1001.49
2023-04-13T11:06:24.708Z,1001.46
2023-04-13T11:07:24.706Z,1001.56
2023-04-13T11:08:24.685Z,1001.49
2023-04-13T11:09:24.665Z,1001.46
2023-04-13T11:10:24.652Z,1001.46
2023-04-13T11:11:24.750Z,1001.53
2023-04-13T11:12:25.770Z,1001.53
2023-04-13T11:13:25.654Z,1001.53
2023-04-13T11:14:24.641Z,1001.50
2023-04-13T11:15:24.957Z,1001.46
2023-04-13T11:16:25.733Z,1001.61
2023-04-13T11:17:24.767Z,1001.58
2023-04-13T11:18:24.565Z,1001.57
2023-04-13T11:19:24.552Z,1001.58
2023-04-13T11:20:24.569Z,1001.55
2023-04-13T11:21:24.524Z,1001.49
2023-04-13T11:22:24.533Z,1001.59
2023-04-13T11:23:24.734Z,1001.56
2023-04-13T11:24:24.491Z,1001.55
2023-04-13T11:25:24.521Z,1001.59
2023-04-13T11:26:24.469Z,1001.59
2023-04-13T11:27:24.488Z,1001.65
2023-04-13T11:28:24.450Z,1001.63
2023-04-13T11:29:24.434Z,1001.59
2023-04-13T11:30:24.426Z,1001.62
2023-04-13T11:31:24.441Z,1001.67
2023-04-13T11:32:24.550Z,1001.63
2023-04-13T11:33:24.390Z,1001.62
2023-04-13T11:34:24.384Z,1001.64
2023-04-13T11:35:24.401Z,1001.64
2023-04-13T11:36:24.397Z,1001.64
2023-04-13T11:37:24.352Z,1001.65
2023-04-13T11:38:24.337Z,1001.64
2023-04-13T11:39:24.326Z,1001.60
2023-04-13T11:40:24.315Z,1001.60
2023-04-13T11:41:24.317Z,1001.58
2023-04-13T11:42:24.332Z,1001.68
2023-04-13T11:43:24.300Z,1001.63
2023-04-13T11:44:24.269Z,1001.72
2023-04-13T11:45:24.262Z,1001.66
2023-04-13T11:46:24.275Z,1001.61
2023-04-13T11:47:24.331Z,1001.63
2023-04-13T11:48:24.239Z,1001.65
2023-04-13T11:49:24.213Z,1001.66
2023-04-13T11:50:24.250Z,1001.62
2023-04-13T11:51:24.198Z,1001.62
2023-04-13T11:52:24.215Z,1001.64
2023-04-13T11:53:24.169Z,1001.59
2023-04-13T11:54:24.168Z,1001.59
2023-04-13T11:55:24.420Z,1001.70
2023-04-13T11:56:24.148Z,1001.62
2023-04-13T11:57:24.165Z,1001.67
2023-04-13T11:58:24.140Z,1001.70
2023-04-13T11:59:24.154Z,1001.71
2023-04-13T12:00:24.481Z,1001.66
2023-04-13T12:01:26.613Z,1001.65
2023-04-13T12:02:29.499Z,1001.68
2023-04-13T12:03:38.584Z,1001.71
2023-04-13T12:04:25.321Z,1001.68
2023-04-13T12:05:24.265Z,1001.71
2023-04-13T12:06:24.523Z,1001.71
2023-04-13T12:07:24.413Z,1001.74
2023-04-13T12:08:24.619Z,1001.70
2023-04-13T12:09:33.905Z,1001.68
2023-04-13T12:10:27.448Z,1001.69
2023-04-13T12:14:12.023Z,1001.61
2023-04-13T12:15:25.190Z,1001.65
2023-04-13T12:16:13.305Z,1001.65
2023-04-13T12:17:18.308Z,1001.62
2023-04-13T12:19:07.141Z,1001.77
2023-04-13T12:20:07.560Z,1001.75
2023-04-13T12:21:06.644Z,1001.82
2023-04-13T12:22:07.182Z,1001.83